Дата Пункты Температура Давл., мм. Влажн., % Ветер Погодные явления
Воздуха Воды Направл. Скорость
20.05.15 02:00 Одесса 21.0 14.0 759 58 Ю-В 2 15 часов
20.05.15 11:00 Одесса 19.0 13.0 759 71 С-В 2 12 часов
20.05.15 08:00 Одесса 18.0 13.0 759 84 В 2 09 часов
20.05.15 05:00 Одесса 14.0 12.0 758 97 В 1 06 часов
20.05.15 02:00 Одесса 14.0 12.0 758 98 Ю 1 03 часа
19.05.15 08:00 Одесса 17.0 12.0 758 84 Ю-З 2 21 час
19.05.15 05:00 Одесса 18.0 11.0 758 81 Ю 4 18 часов
19.05.15 02:00 Одесса 18.0 11.0 759 81 Ю 6 15 часов
19.05.15 11:00 Одесса 15.0 12.0 759 100 Ю-В 2 12 часов
19.05.15 08:00 Одесса 16.0 12.0 758 96 Ю 3 09 часов
19.05.15 05:00 Одесса 15.0 13.0 758 97 Ю-З 1 06 часов
19.05.15 02:00 Одесса 15.0 13.0 759 79 Ю-З 1 03 часа
18.05.15 08:00 Одесса 16.0 12.0 759 55 Ю-З 3 21 час
18.05.15 05:00 Одесса 18.0 12.0 759 47 Ю 3 18 часов
18.05.15 02:00 Одесса 17.0 12.0 760 61 Ю 4 15 часов
18.05.15 11:00 Одесса 18.0 13.0 761 62 Ю-В 2 12 часов
18.05.15 08:00 Одесса 17.0 13.0 761 64 С 2 09 часов
15.05.15 08:00 Одесса 15.0 11.0 753 62 С-З 3 09 часов
15.05.15 05:00 Одесса 12.0 11.0 752 77 С-З 3 06 часов
15.05.15 02:00 Одесса 16.0 11.0 750 81 Ю-З 2 03 часа
Количество строк
281 282 283 284 285 286 287 288 289 290
Page 282 of 373